Hlavní strana
METAR-TAF:

METAR-TAF

Letiště :

Flemingsburg, Kentucky, Spojené státy americké

zeměpisná šířka: 38-32-30N, zeměpisná délka: 083-44-36W, výška: 278 m

Aktuální stav počasí

Zpráva byla vytvořena před 18 minutami, v 23:35 UTC
Západoseverozápadní vítr 16 kt s nárazy do 24 kt
Teplota 13°C
Vlhkost vzduchu 38%
Tlak 1013 hPa
Viditelnost: 16.1 km
Polojasno ve výšce 9500 ft

METAR: KFGX 202335Z AUTO 29016G24KT 10SM SCT095 13/M01 A2990 RMK AO2 T01271013

Čas: 19:53 (23:53 UTC)


TAF: chybějící

Stav a předpovědi počasí z více než 4 000 letišť (zprávy METAR a TAF).

Červené a žluté tečky na mapě představují dostupné meteorologické stanice.

Když kurzor umístíte na tečku, zobrazí se název stanice.

Pak kliknutím zobrazíte stav a předpověď počasí.

Chcete-li změnit mapu, kliknutím na zelené tlačítko se znaménkem +mapu přiblížíte, kliknutím na zelené tlačítko se znaménkem – mapu oddálíte a kliknutím na zelené šipky přejdete na sousední mapy.


METAR-TAF: